createdAt,value
2024-01-11T00:03:39.771Z,84.03
2024-01-11T00:10:01.548Z,84.38
2024-01-11T00:15:23.747Z,84.02
2024-01-11T00:20:26.151Z,83.88
2024-01-11T00:26:29.430Z,84.26
2024-01-11T00:31:52.025Z,83.34
2024-01-11T00:36:54.434Z,83.17
2024-01-11T00:41:56.749Z,83.66
2024-01-11T00:46:59.284Z,83.03
2024-01-11T00:52:01.385Z,83.92
2024-01-11T00:57:03.456Z,84.54
2024-01-11T01:02:05.667Z,84.83
2024-01-11T01:07:12.965Z,84.38
2024-01-11T01:12:15.252Z,84.26
2024-01-11T01:17:17.667Z,84.30
2024-01-11T01:22:20.021Z,84.80
2024-01-11T01:28:04.741Z,84.23
2024-01-11T01:33:07.136Z,84.39
2024-01-11T01:38:09.539Z,84.71
2024-01-11T01:43:11.776Z,85.17
2024-01-11T01:48:14.308Z,85.13
2024-01-11T01:54:16.388Z,85.00
2024-01-11T02:00:33.664Z,84.46
2024-01-11T02:05:36.309Z,83.91
2024-01-11T02:10:38.589Z,84.43
2024-01-11T02:15:40.613Z,85.01
2024-01-11T02:20:42.796Z,85.13
2024-01-11T02:25:44.998Z,84.78
2024-01-11T02:30:47.389Z,84.43
2024-01-11T02:35:49.623Z,84.65
2024-01-11T02:40:52.723Z,84.57
2024-01-11T02:46:00.175Z,85.39
2024-01-11T02:51:02.681Z,85.33
2024-01-11T02:56:05.100Z,84.84
2024-01-11T03:01:07.572Z,84.85
2024-01-11T03:06:09.826Z,84.68
2024-01-11T03:12:21.954Z,84.79
2024-01-11T03:18:43.908Z,84.43
2024-01-11T03:23:52.762Z,83.58
2024-01-11T03:28:55.464Z,83.55
2024-01-11T03:33:57.995Z,84.06
2024-01-11T03:39:00.089Z,83.65
2024-01-11T03:44:02.846Z,83.63
2024-01-11T03:49:05.690Z,83.44
2024-01-11T03:54:08.004Z,83.93
2024-01-11T03:59:12.384Z,84.61
2024-01-11T04:04:15.223Z,85.03
2024-01-11T04:09:18.858Z,85.53
2024-01-11T04:14:21.066Z,85.65
2024-01-11T04:19:24.209Z,85.25
2024-01-11T04:24:26.601Z,84.46
2024-01-11T04:29:28.999Z,84.32
2024-01-11T04:34:31.601Z,84.13
2024-01-11T04:39:34.300Z,84.00
2024-01-11T04:44:36.902Z,84.48
2024-01-11T04:49:40.936Z,84.82
2024-01-11T04:54:45.677Z,85.28
2024-01-11T04:59:47.994Z,85.46
2024-01-11T05:04:50.570Z,85.17
2024-01-11T05:09:52.634Z,84.76
2024-01-11T05:14:54.702Z,84.58
2024-01-11T05:19:57.002Z,84.20
2024-01-11T05:24:59.066Z,83.79
2024-01-11T05:30:01.682Z,83.63
2024-01-11T05:36:03.554Z,83.64
2024-01-11T05:42:25.301Z,83.77
2024-01-11T05:47:47.393Z,84.40
2024-01-11T05:52:50.170Z,84.36
2024-01-11T05:57:52.378Z,84.20
2024-01-11T06:02:54.741Z,84.27
2024-01-11T06:08:13.346Z,83.94
2024-01-11T06:13:15.500Z,84.24
2024-01-11T06:18:18.490Z,84.05
2024-01-11T06:23:21.308Z,84.14
2024-01-11T06:28:23.885Z,83.83
2024-01-11T06:33:26.374Z,83.85
2024-01-11T06:38:28.795Z,83.75
2024-01-11T06:43:31.459Z,83.90
2024-01-11T06:48:34.391Z,84.00
2024-01-11T06:53:38.116Z,83.91
2024-01-11T06:58:40.226Z,84.05
2024-01-11T07:03:42.534Z,83.43
2024-01-11T07:08:44.835Z,82.64
2024-01-11T07:13:47.779Z,82.08
2024-01-11T07:18:50.236Z,81.17
2024-01-11T07:24:06.357Z,80.03
2024-01-11T07:29:08.499Z,78.13
2024-01-11T07:34:10.585Z,78.53
2024-01-11T07:39:12.902Z,83.02
2024-01-11T07:44:15.017Z,84.43
2024-01-11T07:49:17.252Z,80.59
2024-01-11T07:54:19.691Z,77.53
2024-01-11T07:59:22.026Z,78.51
2024-01-11T08:04:24.180Z,77.57
2024-01-11T08:09:27.423Z,73.25
2024-01-11T08:14:29.578Z,69.93
2024-01-11T08:19:35.238Z,67.28
2024-01-11T08:24:37.351Z,69.59
2024-01-11T08:29:40.071Z,71.91
2024-01-11T08:34:42.647Z,73.03
2024-01-11T08:39:45.064Z,73.20
2024-01-11T08:44:48.784Z,73.64
2024-01-11T08:49:51.413Z,73.84
2024-01-11T08:54:53.837Z,75.22
2024-01-11T08:59:56.279Z,76.76
2024-01-11T09:04:58.377Z,78.22
2024-01-11T09:10:00.772Z,78.30
2024-01-11T09:15:03.219Z,78.29
2024-01-11T09:20:06.141Z,77.16
2024-01-11T09:25:09.879Z,75.44
2024-01-11T09:30:12.436Z,76.60
2024-01-11T09:35:16.578Z,76.73
2024-01-11T09:40:20.257Z,76.11
2024-01-11T09:45:22.450Z,75.83
2024-01-11T09:50:26.161Z,75.65
2024-01-11T09:55:28.385Z,75.65
2024-01-11T10:00:31.042Z,75.02
2024-01-11T10:05:35.887Z,74.81
2024-01-11T10:10:39.917Z,74.52
2024-01-11T10:15:44.316Z,73.97
2024-01-11T10:20:46.745Z,72.71
2024-01-11T10:25:48.884Z,72.57
2024-01-11T10:30:54.368Z,71.15
2024-01-11T10:35:56.707Z,71.66
2024-01-11T10:41:01.755Z,71.33
2024-01-11T10:46:07.944Z,70.77
2024-01-11T10:51:13.924Z,69.84
2024-01-11T10:56:19.828Z,71.33
2024-01-11T11:01:22.988Z,71.50
2024-01-11T11:06:26.017Z,71.22
2024-01-11T11:11:30.390Z,72.10
2024-01-11T11:16:32.670Z,71.41
2024-01-11T11:21:43.498Z,70.15
2024-01-11T11:26:48.976Z,71.10
2024-01-11T11:31:58.468Z,70.80
2024-01-11T11:37:01.234Z,70.22
2024-01-11T11:42:04.261Z,69.16
2024-01-11T11:47:24.099Z,68.82
2024-01-11T11:52:27.053Z,68.86
2024-01-11T11:57:30.065Z,68.46
2024-01-11T12:02:32.569Z,67.46
2024-01-11T12:07:34.950Z,67.05
2024-01-11T12:12:38.342Z,64.79
2024-01-11T12:17:44.050Z,64.24
2024-01-11T12:22:46.515Z,66.39
2024-01-11T12:27:48.841Z,65.55
2024-01-11T12:32:51.996Z,65.92
2024-01-11T12:38:00.711Z,67.16
2024-01-11T12:43:02.974Z,67.53
2024-01-11T12:48:08.530Z,67.79
2024-01-11T12:53:22.285Z,67.79
2024-01-11T12:58:27.751Z,67.87
2024-01-11T13:03:30.379Z,68.15
2024-01-11T13:08:33.238Z,68.12
2024-01-11T13:13:36.856Z,68.61
2024-01-11T13:18:39.020Z,67.64
2024-01-11T13:23:42.182Z,68.43
2024-01-11T13:28:44.339Z,68.35
2024-01-11T13:33:46.620Z,68.08
2024-01-11T13:38:48.869Z,68.18
2024-01-11T13:43:51.518Z,68.57
2024-01-11T13:48:54.472Z,68.69
2024-01-11T13:53:56.841Z,69.34
2024-01-11T13:58:58.930Z,69.73
2024-01-11T14:04:01.054Z,70.10
2024-01-11T14:09:06.021Z,70.38
2024-01-11T14:14:08.781Z,71.02
2024-01-11T14:19:11.151Z,71.47
2024-01-11T14:24:14.491Z,71.39
2024-01-11T14:29:17.101Z,71.82
2024-01-11T14:34:19.539Z,71.71
2024-01-11T14:39:24.337Z,72.08
2024-01-11T14:44:27.262Z,72.54
2024-01-11T14:49:31.020Z,72.72
2024-01-11T14:54:33.675Z,73.03
2024-01-11T14:59:35.958Z,73.69
2024-01-11T15:04:38.256Z,74.11
2024-01-11T15:09:42.036Z,74.45
2024-01-11T15:14:44.596Z,74.66
2024-01-11T15:19:47.916Z,75.41
2024-01-11T15:25:49.953Z,75.53
2024-01-11T15:32:11.985Z,75.94
2024-01-11T15:38:44.036Z,76.35
2024-01-11T15:44:06.249Z,76.82
2024-01-11T15:49:08.965Z,77.61
2024-01-11T15:54:11.335Z,78.80
2024-01-11T15:59:13.835Z,79.25
2024-01-11T16:04:16.150Z,79.59
2024-01-11T16:09:18.415Z,80.21
2024-01-11T16:14:20.802Z,80.56
2024-01-11T16:19:23.276Z,80.82
2024-01-11T16:24:26.037Z,80.78
2024-01-11T16:29:28.458Z,81.04
2024-01-11T16:34:30.849Z,81.26
2024-01-11T16:39:33.220Z,81.24
2024-01-11T16:44:35.564Z,81.47
2024-01-11T16:49:37.902Z,81.82
2024-01-11T16:54:40.455Z,82.08
2024-01-11T16:59:42.777Z,81.94
2024-01-11T17:04:45.419Z,82.45
2024-01-11T17:09:48.175Z,82.63
2024-01-11T17:14:51.522Z,82.57
2024-01-11T17:19:54.342Z,82.86
2024-01-11T17:24:59.031Z,83.24
2024-01-11T17:30:01.249Z,83.50
2024-01-11T17:35:04.174Z,83.81
2024-01-11T17:40:07.757Z,84.12
2024-01-11T17:45:11.400Z,84.03
2024-01-11T17:50:13.647Z,84.42
2024-01-11T17:55:15.862Z,84.49
2024-01-11T18:00:22.769Z,84.85
2024-01-11T18:05:26.630Z,84.82
2024-01-11T18:10:38.932Z,85.02
2024-01-11T18:15:43.595Z,85.34
2024-01-11T18:21:45.516Z,85.76
2024-01-11T18:27:32.940Z,85.83
2024-01-11T18:32:35.472Z,86.30
2024-01-11T18:37:38.076Z,86.22
2024-01-11T18:42:46.590Z,86.31
2024-01-11T18:47:48.804Z,86.52
2024-01-11T18:52:52.909Z,86.57
2024-01-11T18:57:56.278Z,86.57
2024-01-11T19:03:00.021Z,86.99
2024-01-11T19:09:02.056Z,87.10
2024-01-11T19:15:23.856Z,87.58
2024-01-11T19:20:46.406Z,88.28
2024-01-11T19:25:48.917Z,88.18
2024-01-11T19:30:54.767Z,88.27
2024-01-11T19:36:00.180Z,88.60
2024-01-11T19:41:02.448Z,88.82
2024-01-11T19:46:05.233Z,88.86
2024-01-11T19:51:11.309Z,88.81
2024-01-11T19:57:20.427Z,89.14
2024-01-11T20:02:42.988Z,89.43
2024-01-11T20:07:45.499Z,89.56
2024-01-11T20:12:49.470Z,89.55
2024-01-11T20:17:51.685Z,89.69
2024-01-11T20:22:55.448Z,89.76
2024-01-11T20:27:58.104Z,89.73
2024-01-11T20:33:01.109Z,89.66
2024-01-11T20:38:05.149Z,89.76
2024-01-11T20:43:10.079Z,89.93
2024-01-11T20:48:12.924Z,89.98
2024-01-11T20:53:16.187Z,89.99
2024-01-11T20:58:18.364Z,90.07
2024-01-11T21:03:20.846Z,90.08
2024-01-11T21:08:22.722Z,90.42
2024-01-11T21:13:25.569Z,90.43
2024-01-11T21:18:27.829Z,90.33
2024-01-11T21:23:30.875Z,90.53
2024-01-11T21:29:33.352Z,90.76
2024-01-11T21:34:55.711Z,90.89
2024-01-11T21:39:58.413Z,90.85
2024-01-11T21:45:00.765Z,90.91
2024-01-11T21:51:04.679Z,90.96
2024-01-11T21:57:26.656Z,90.81
2024-01-11T22:03:48.468Z,90.84
2024-01-11T22:09:10.757Z,90.92
2024-01-11T22:14:13.209Z,90.93
2024-01-11T22:19:15.514Z,90.88
2024-01-11T22:24:18.795Z,90.85
2024-01-11T22:29:21.052Z,91.04
2024-01-11T22:34:24.550Z,91.15
2024-01-11T22:40:08.317Z,91.26
2024-01-11T22:45:10.577Z,91.08
2024-01-11T22:50:12.766Z,90.89
2024-01-11T22:55:15.037Z,90.78
2024-01-11T23:00:39.218Z,91.00
2024-01-11T23:05:41.966Z,90.75
2024-01-11T23:11:44.705Z,90.89
2024-01-11T23:17:50.193Z,90.58
2024-01-11T23:23:12.391Z,90.79
2024-01-11T23:28:14.711Z,91.13
2024-01-11T23:33:17.287Z,90.99
2024-01-11T23:39:19.416Z,90.69
2024-01-11T23:45:41.163Z,90.93
2024-01-11T23:52:02.927Z,90.91
2024-01-11T23:58:12.617Z,90.97
